Time;durP1;ratioP1;P1;durP2;ratioP2;P2;SDS_P1;SDS_P2;PMS_P1;PMS_P2;Temp;Humidity;BMP_temperature;BMP_pressure;BME280_temperature;BME280_humidity;BME280_pressure;Samples;Min_cycle;Max_cycle;Signal;HPM_P1;HPM_P2
2023/10/17 00:01:50;;;;;;;1999.90;999.90;;;6.40;99.90;;;;;;5037673;28;20042;-66
2023/10/17 00:06:48;;;;;;;1999.90;999.90;;;6.30;99.90;;;;;;5033784;28;20441;-66
2023/10/17 00:09:24;;;;;;;1999.90;999.90;;;6.30;99.90;;;;;;5054244;28;20037;-66
2023/10/17 00:11:58;;;;;;;1999.90;999.90;;;6.30;99.90;;;;;;5049252;28;20041;-66
2023/10/17 00:14:34;;;;;;;1999.90;999.90;;;6.30;99.90;;;;;;5052127;28;20108;-66
2023/10/17 00:17:02;;;;;;;1999.90;999.90;;;6.30;99.90;;;;;;5035043;28;20041;-66
2023/10/17 00:19:31;;;;;;;1999.90;999.90;;;6.30;99.90;;;;;;5037685;28;20191;-66
2023/10/17 00:22:03;;;;;;;1999.90;999.90;;;6.30;99.90;;;;;;5048440;28;20045;-66
2023/10/17 00:24:29;;;;;;;1999.90;999.90;;;6.30;99.90;;;;;;5032656;28;20045;-66
2023/10/17 00:26:55;;;;;;;1999.90;999.90;;;6.30;99.90;;;;;;5028913;28;20045;-66
2023/10/17 00:29:21;;;;;;;1999.90;999.90;;;6.30;99.90;;;;;;5049035;28;20064;-66
2023/10/17 00:31:47;;;;;;;1999.90;999.90;;;6.30;99.90;;;;;;5051347;28;20044;-66
2023/10/17 00:34:13;;;;;;;1999.90;999.90;;;6.30;99.90;;;;;;5056338;28;20029;-66
2023/10/17 00:37:23;;;;;;;1999.90;999.90;;;6.40;99.90;;;;;;5048208;28;20083;-66
2023/10/17 00:39:36;;;;;;;1999.90;999.90;;;6.30;99.90;;;;;;5038427;28;20077;-66
2023/10/17 00:44:39;;;;;;;1999.90;999.90;;;6.40;99.90;;;;;;5052716;28;20471;-66
2023/10/17 00:47:18;;;;;;;1999.90;999.90;;;6.40;99.90;;;;;;5049660;28;20068;-66
2023/10/17 00:49:45;;;;;;;1999.90;999.90;;;6.40;99.90;;;;;;5030676;28;20450;-67
2023/10/17 00:52:25;;;;;;;1999.90;999.90;;;6.40;99.90;;;;;;5050897;28;20067;-66
2023/10/17 00:54:53;;;;;;;1999.90;999.90;;;6.40;99.90;;;;;;5048651;28;20434;-66
2023/10/17 00:57:22;;;;;;;1999.90;999.90;;;6.50;99.90;;;;;;5046749;28;20083;-66
2023/10/17 00:59:50;;;;;;;1999.90;999.90;;;6.50;99.90;;;;;;5046688;28;20711;-66
2023/10/17 01:02:22;;;;;;;1999.90;999.90;;;6.50;99.90;;;;;;5041993;28;20064;-66
2023/10/17 01:04:49;;;;;;;1999.90;999.90;;;6.50;99.90;;;;;;5043331;28;20564;-66
2023/10/17 01:07:31;;;;;;;1999.90;999.90;;;6.50;99.90;;;;;;5048088;28;20394;-66
2023/10/17 01:10:10;;;;;;;1999.90;999.90;;;6.50;99.90;;;;;;5036575;28;20124;-66
2023/10/17 01:12:45;;;;;;;1999.90;999.90;;;6.50;99.90;;;;;;5047259;28;20041;-66
2023/10/17 01:15:29;;;;;;;1999.90;999.90;;;6.50;99.90;;;;;;5041792;28;20084;-66
2023/10/17 01:17:57;;;;;;;1999.90;999.90;;;6.60;99.90;;;;;;5047685;28;20049;-66
2023/10/17 01:20:23;;;;;;;1999.90;999.90;;;6.60;99.90;;;;;;5048374;28;20499;-66
2023/10/17 01:22:49;;;;;;;1999.90;999.90;;;6.60;99.90;;;;;;5024919;28;20049;-67
2023/10/17 01:25:29;;;;;;;1999.90;999.90;;;6.60;99.90;;;;;;5027639;28;20053;-66
2023/10/17 01:27:59;;;;;;;1999.90;999.90;;;6.60;99.90;;;;;;5058877;28;20115;-66
2023/10/17 01:30:34;;;;;;;1999.90;999.90;;;6.60;99.90;;;;;;5047143;28;20048;-66
2023/10/17 01:33:00;;;;;;;1999.90;999.90;;;6.60;99.90;;;;;;5042440;28;20040;-66
2023/10/17 01:35:26;;;;;;;1999.90;999.90;;;6.60;99.90;;;;;;5046428;28;20489;-66
2023/10/17 01:37:52;;;;;;;1999.90;999.90;;;6.60;99.90;;;;;;5043115;28;20033;-66
2023/10/17 01:40:26;;;;;;;1999.90;999.90;;;6.60;99.90;;;;;;5042086;28;20393;-66
2023/10/17 01:42:53;;;;;;;1999.90;999.90;;;6.60;99.90;;;;;;5054235;28;20538;-67
2023/10/17 01:45:23;;;;;;;1999.90;999.90;;;6.60;99.90;;;;;;5030604;28;20090;-66
2023/10/17 01:47:51;;;;;;;1999.90;999.90;;;6.60;99.90;;;;;;5047697;28;20537;-66
2023/10/17 01:50:20;;;;;;;1999.90;999.90;;;6.50;99.90;;;;;;5031662;28;20052;-66
2023/10/17 01:52:47;;;;;;;1999.90;999.90;;;6.50;99.90;;;;;;5041331;28;20068;-66
2023/10/17 01:55:15;;;;;;;1999.90;999.90;;;6.40;99.90;;;;;;5031952;28;20469;-66
2023/10/17 01:57:43;;;;;;;1999.90;999.90;;;6.40;99.90;;;;;;5048271;28;20072;-66
2023/10/17 02:02:55;;;;;;;1999.90;999.90;;;6.30;99.90;;;;;;5046568;28;20049;-66
2023/10/17 02:05:21;;;;;;;1999.90;999.90;;;6.20;99.90;;;;;;5042033;28;20558;-66
2023/10/17 02:07:47;;;;;;;1999.90;999.90;;;6.10;99.90;;;;;;5042858;28;20057;-66
2023/10/17 02:10:17;;;;;;;1999.90;999.90;;;6.10;99.90;;;;;;5049617;28;20044;-66
2023/10/17 02:12:49;;;;;;;1999.90;999.90;;;6.00;99.90;;;;;;5053111;28;20037;-66
2023/10/17 02:15:23;;;;;;;1999.90;999.90;;;5.90;99.90;;;;;;5045350;28;20417;-67
2023/10/17 02:17:53;;;;;;;1999.90;999.90;;;5.80;99.90;;;;;;5035442;28;20042;-66
2023/10/17 02:20:29;;;;;;;1999.90;999.90;;;5.80;99.90;;;;;;5028834;28;20045;-66
2023/10/17 02:23:01;;;;;;;1999.90;999.90;;;5.70;99.90;;;;;;5051290;28;20069;-66
2023/10/17 02:25:37;;;;;;;1999.90;999.90;;;5.70;99.90;;;;;;5036592;28;20103;-66
2023/10/17 02:28:03;;;;;;;1999.90;999.90;;;5.60;99.90;;;;;;5041197;28;20516;-66
2023/10/17 02:30:28;;;;;;;1999.90;999.90;;;5.60;99.90;;;;;;5044810;28;20500;-66
2023/10/17 02:32:54;;;;;;;1999.90;999.90;;;5.60;99.90;;;;;;5044004;28;20682;-66
2023/10/17 02:35:28;;;;;;;1999.90;999.90;;;5.50;99.90;;;;;;5045408;28;20052;-66
2023/10/17 02:37:57;;;;;;;1999.90;999.90;;;5.50;99.90;;;;;;5046865;28;20044;-66
2023/10/17 02:40:23;;;;;;;1999.90;999.90;;;5.50;99.90;;;;;;5047311;28;20475;-66
2023/10/17 02:42:49;;;;;;;1999.90;999.90;;;5.40;99.90;;;;;;5045599;28;20049;-66
2023/10/17 02:45:25;;;;;;;1999.90;999.90;;;5.30;99.90;;;;;;5033774;28;20052;-66
2023/10/17 02:47:56;;;;;;;1999.90;999.90;;;5.20;99.90;;;;;;5040932;28;20041;-66
2023/10/17 02:52:57;;;;;;;1999.90;999.90;;;5.10;99.90;;;;;;5051897;28;20060;-66
2023/10/17 02:55:25;;;;;;;1999.90;999.90;;;5.00;99.90;;;;;;5030247;28;20489;-66
2023/10/17 02:57:55;;;;;;;1999.90;999.90;;;5.00;99.90;;;;;;5046898;28;20044;-66
2023/10/17 03:00:33;;;;;;;1999.90;999.90;;;4.90;99.90;;;;;;5023676;28;20049;-66
2023/10/17 03:02:59;;;;;;;1999.90;999.90;;;4.80;99.90;;;;;;5028616;28;20063;-66
2023/10/17 03:05:29;;;;;;;1999.90;999.90;;;4.80;99.90;;;;;;5041856;28;20052;-66
2023/10/17 03:07:55;;;;;;;1999.90;999.90;;;4.70;99.90;;;;;;5045914;28;20178;-66
2023/10/17 03:10:39;;;;;;;1999.90;999.90;;;4.70;99.90;;;;;;5040055;28;20124;-66
2023/10/17 03:15:55;;;;;;;1999.90;999.90;;;4.60;99.90;;;;;;5040830;28;20269;-66
2023/10/17 03:18:21;;;;;;;1999.90;999.90;;;4.50;99.90;;;;;;5045172;28;20498;-66
2023/10/17 03:20:53;;;;;;;1999.90;999.90;;;4.50;99.90;;;;;;5050829;28;20037;-66
2023/10/17 03:23:20;;;;;;;1999.90;999.90;;;4.50;99.90;;;;;;5050813;28;20048;-66
2023/10/17 03:25:46;;;;;;;1999.90;999.90;;;4.50;99.90;;;;;;5050436;28;20051;-66
2023/10/17 03:28:13;;;;;;;1999.90;999.90;;;4.50;99.90;;;;;;5047100;28;20045;-66
2023/10/17 03:30:40;;;;;;;1999.90;999.90;;;4.50;99.90;;;;;;5047411;28;20049;-67
2023/10/17 03:33:08;;;;;;;1999.90;999.90;;;4.50;99.90;;;;;;5034074;28;20033;-67
2023/10/17 03:35:45;;;;;;;1999.90;999.90;;;4.40;99.90;;;;;;5050633;28;20036;-66
2023/10/17 03:38:14;;;;;;;1999.90;999.90;;;4.50;99.90;;;;;;5049229;28;20040;-66
2023/10/17 03:40:52;;;;;;;1999.90;999.90;;;4.40;99.90;;;;;;5050747;28;20056;-66
2023/10/17 03:43:21;;;;;;;1999.90;999.90;;;4.40;99.90;;;;;;5048432;28;20076;-66
2023/10/17 03:45:56;;;;;;;1999.90;999.90;;;4.40;99.90;;;;;;5051382;28;20041;-66
2023/10/17 03:48:23;;;;;;;1999.90;999.90;;;4.40;99.90;;;;;;5027800;28;20044;-67
2023/10/17 03:50:58;;;;;;;1999.90;999.90;;;4.40;99.90;;;;;;5045928;28;20038;-66
2023/10/17 03:53:28;;;;;;;1999.90;999.90;;;4.40;99.90;;;;;;5040538;28;20036;-67
2023/10/17 03:55:54;;;;;;;1999.90;999.90;;;4.30;99.90;;;;;;5034169;28;20048;-66
2023/10/17 04:00:54;;;;;;;1999.90;999.90;;;4.30;99.90;;;;;;5050948;28;20053;-67
2023/10/17 04:03:21;;;;;;;1999.90;999.90;;;4.30;99.90;;;;;;5030781;28;20045;-67
2023/10/17 04:08:49;;;;;;;1999.90;999.90;;;4.30;99.90;;;;;;5058139;28;20044;-66
2023/10/17 04:14:00;;;;;;;1999.90;999.90;;;4.40;99.90;;;;;;5047411;28;20049;-66
2023/10/17 04:16:34;;;;;;;1999.90;999.90;;;4.40;99.90;;;;;;5045471;28;20045;-67
2023/10/17 04:19:18;;;;;;;1999.90;999.90;;;4.40;99.90;;;;;;5049814;28;20052;-66
2023/10/17 04:24:35;;;;;;;1999.90;999.90;;;4.50;99.90;;;;;;5046855;28;20414;-67
2023/10/17 04:29:44;;;;;;;1999.90;999.90;;;4.50;99.90;;;;;;5045432;28;20412;-66
2023/10/17 04:32:13;;;;;;;1999.90;999.90;;;4.50;99.90;;;;;;5047150;28;20041;-67
2023/10/17 04:34:48;;;;;;;1999.90;999.90;;;4.40;99.90;;;;;;5041997;28;20108;-67
2023/10/17 04:37:17;;;;;;;1999.90;999.90;;;4.40;99.90;;;;;;5024178;28;20098;-67
2023/10/17 04:45:28;;;;;;;1999.90;999.90;;;4.30;99.90;;;;;;5051443;28;20191;-66
2023/10/17 04:48:10;;;;;;;1999.90;999.90;;;4.20;99.90;;;;;;5048210;28;20520;-67
2023/10/17 04:50:44;;;;;;;1999.90;999.90;;;4.20;99.90;;;;;;5037084;28;20041;-66
2023/10/17 04:53:19;;;;;;;1999.90;999.90;;;4.20;99.90;;;;;;5049333;28;20408;-67
2023/10/17 04:56:08;;;;;;;1999.90;999.90;;;4.20;99.90;;;;;;5039131;28;20041;-66
2023/10/17 04:58:30;;;;;;;1999.90;999.90;;;4.20;99.90;;;;;;5045196;28;20064;-67
2023/10/17 05:03:45;;;;;;;1999.90;999.90;;;4.20;99.90;;;;;;5047193;28;20041;-66
2023/10/17 06:17:20;;;;;;;1999.90;999.90;;;5.20;99.90;;;;;;5032030;28;20386;-67
2023/10/17 06:19:46;;;;;;;1999.90;999.90;;;5.20;99.90;;;;;;5052137;28;20045;-66
2023/10/17 06:32:49;;;;;;;1999.90;999.90;;;5.50;99.90;;;;;;5045225;28;20041;-66
2023/10/17 06:35:20;;;;;;;1999.90;999.90;;;5.50;99.90;;;;;;5043150;28;20508;-67
2023/10/17 06:37:52;;;;;;;1999.90;999.90;;;5.60;99.90;;;;;;5038491;28;20084;-67
2023/10/17 06:40:18;;;;;;;1999.90;999.90;;;5.60;99.90;;;;;;5049929;28;20413;-67
2023/10/17 06:42:59;;;;;;;1999.90;999.90;;;5.70;99.90;;;;;;5045096;28;20068;-67
2023/10/17 06:45:25;;;;;;;1999.90;999.90;;;5.70;99.90;;;;;;5030114;28;20056;-67
2023/10/17 06:47:56;;;;;;;1999.90;999.90;;;5.80;99.90;;;;;;5056916;28;20048;-67
2023/10/17 06:53:11;;;;;;;1999.90;999.90;;;5.90;99.90;;;;;;5032785;28;20045;-67
2023/10/17 06:55:43;;;;;;;1999.90;999.90;;;5.90;99.90;;;;;;5033291;28;20551;-67
2023/10/17 06:58:09;;;;;;;1999.90;999.90;;;6.00;99.90;;;;;;5039923;28;20037;-67
2023/10/17 07:03:15;;;;;;;1999.90;999.90;;;6.10;99.90;;;;;;5041111;28;20059;-67
2023/10/17 07:05:49;;;;;;;1999.90;999.90;;;6.20;99.90;;;;;;5041888;28;20037;-67
2023/10/17 07:08:19;;;;;;;1999.90;999.90;;;6.30;99.90;;;;;;5042944;28;20053;-67
2023/10/17 07:14:47;;;;;;;1999.90;999.90;;;6.50;99.90;;;;;;5032277;28;20045;-67
2023/10/17 07:16:48;;;;;;;1999.90;999.90;;;6.60;99.90;;;;;;5027765;28;20040;-68
2023/10/17 07:24:25;;;;;;;1999.90;999.90;;;6.90;99.90;;;;;;5049048;28;20060;-67
2023/10/17 07:26:52;;;;;;;1999.90;999.90;;;7.00;99.90;;;;;;5043909;28;20052;-67
2023/10/17 07:29:22;;;;;;;1999.90;999.90;;;7.10;99.90;;;;;;5042205;28;20064;-67
2023/10/17 07:31:52;;;;;;;1999.90;999.90;;;7.20;99.90;;;;;;5041940;28;20041;-67
2023/10/17 07:34:21;;;;;;;1999.90;999.90;;;7.30;99.90;;;;;;5046697;28;20076;-66
2023/10/17 07:36:50;;;;;;;1999.90;999.90;;;7.40;99.90;;;;;;5041087;28;20050;-67
2023/10/17 07:39:23;;;;;;;1999.90;999.90;;;7.60;99.90;;;;;;5043372;28;20055;-67
2023/10/17 07:41:55;;;;;;;1999.90;999.90;;;7.70;99.90;;;;;;5039935;28;20069;-67
2023/10/17 07:44:27;;;;;;;1999.90;999.90;;;7.80;99.90;;;;;;5046585;28;20045;-66
2023/10/17 07:47:08;;;;;;;1999.90;999.90;;;7.90;99.90;;;;;;5038711;28;20080;-67
2023/10/17 07:49:42;;;;;;;1999.90;999.90;;;8.00;99.90;;;;;;5055070;28;20082;-66
2023/10/17 07:52:12;;;;;;;1999.90;999.90;;;8.10;99.90;;;;;;5046912;28;20379;-66
2023/10/17 07:55:17;;;;;;;1999.90;999.90;;;8.30;99.90;;;;;;5045776;28;20083;-66
2023/10/17 07:57:28;;;;;;;1999.90;999.90;;;8.30;99.90;;;;;;5040367;28;20123;-67
2023/10/17 07:59:57;;;;;;;1999.90;999.90;;;8.30;99.90;;;;;;5038016;28;20514;-67
2023/10/17 08:02:23;;;;;;;1999.90;999.90;;;8.40;99.90;;;;;;5027277;28;20041;-68
2023/10/17 08:04:51;;;;;;;1999.90;999.90;;;8.40;99.90;;;;;;5045360;28;20472;-68
2023/10/17 08:07:23;;;;;;;1999.90;999.90;;;8.50;99.90;;;;;;5032715;28;20041;-67
2023/10/17 08:09:58;;;;;;;1999.90;999.90;;;8.50;99.90;;;;;;5045972;28;20099;-67
2023/10/17 08:12:29;;;;;;;1999.90;999.90;;;8.40;99.90;;;;;;5042732;28;20067;-67
2023/10/17 08:14:58;;;;;;;1999.90;999.90;;;8.30;99.90;;;;;;5052658;28;20438;-67
2023/10/17 08:17:28;;;;;;;1999.90;999.90;;;8.30;99.90;;;;;;5045094;28;20037;-67
2023/10/17 08:20:08;;;;;;;1999.90;999.90;;;8.20;99.90;;;;;;5046527;28;20128;-67
2023/10/17 08:22:58;;;;;;;1999.90;999.90;;;8.10;99.90;;;;;;5048811;28;20151;-67
2023/10/17 08:25:30;;;;;;;1999.90;999.90;;;8.10;99.90;;;;;;5039171;28;20055;-67
2023/10/17 08:28:03;;;;;;;1999.90;999.90;;;8.20;99.90;;;;;;5048246;28;20049;-67
2023/10/17 08:30:34;;;;;;;1999.90;999.90;;;8.70;99.90;;;;;;5024771;28;20056;-67
2023/10/17 08:35:40;;;;;;;1999.90;999.90;;;9.50;99.90;;;;;;5058526;28;20045;-67
2023/10/17 08:38:08;;;;;;;1999.90;999.90;;;9.90;99.90;;;;;;5027474;28;20052;-66
2023/10/17 08:43:06;;;;;;;1999.90;999.90;;;11.00;99.90;;;;;;5056536;28;20045;-67
2023/10/17 08:45:38;;;;;;;1999.90;999.90;;;11.40;99.90;;;;;;5042258;28;20138;-66
2023/10/17 08:48:06;;;;;;;1999.90;999.90;;;11.70;99.90;;;;;;5041980;28;20068;-67
2023/10/17 08:50:38;;;;;;;1999.90;999.90;;;11.90;99.90;;;;;;5049114;28;20041;-67
2023/10/17 08:55:43;;;;;;;1999.90;999.90;;;12.30;99.90;;;;;;5047424;28;20053;-67
2023/10/17 08:58:09;;;;;;;1999.90;999.90;;;12.40;99.90;;;;;;5032456;28;20102;-67
2023/10/17 09:03:11;;;;;;;1999.90;999.90;;;12.60;99.90;;;;;;5060040;28;20052;-67
2023/10/17 09:05:58;;;;;;;1999.90;999.90;;;12.70;99.90;;;;;;5036828;28;20101;-66
2023/10/17 09:08:42;;;;;;;1999.90;999.90;;;12.70;99.90;;;;;;5043905;28;20053;-67
2023/10/17 09:11:08;;;;;;;1999.90;999.90;;;12.80;99.90;;;;;;5036217;28;20498;-67
2023/10/17 09:16:15;;;;;;;1999.90;999.90;;;12.90;99.90;;;;;;5041058;28;20103;-67
2023/10/17 09:18:48;;;;;;;1999.90;999.90;;;12.90;99.90;;;;;;5059785;28;20452;-68
2023/10/17 09:21:14;;;;;;;1999.90;999.90;;;13.00;99.90;;;;;;5031105;28;20048;-67
2023/10/17 09:23:41;;;;;;;1999.90;999.90;;;13.10;99.90;;;;;;5039125;28;20072;-67
2023/10/17 09:26:10;;;;;;;1999.90;999.90;;;13.20;99.90;;;;;;5031834;28;20099;-67
2023/10/17 09:28:36;;;;;;;1999.90;999.90;;;13.30;99.90;;;;;;5043675;28;20511;-67
2023/10/17 09:31:06;;;;;;;1999.90;999.90;;;13.30;99.90;;;;;;5045454;28;20554;-67
2023/10/17 09:33:33;;;;;;;1999.90;999.90;;;13.40;99.90;;;;;;5030600;28;20037;-67
2023/10/17 09:36:02;;;;;;;1999.90;999.90;;;13.50;99.90;;;;;;5043218;28;20564;-67
2023/10/17 09:38:28;;;;;;;1999.90;999.90;;;13.70;99.90;;;;;;5046642;28;20037;-67
2023/10/17 09:40:57;;;;;;;1999.90;999.90;;;13.80;99.90;;;;;;5045719;28;20057;-67
2023/10/17 09:43:23;;;;;;;1999.90;999.90;;;13.90;99.90;;;;;;5035288;28;20059;-67
2023/10/17 09:45:52;;;;;;;1999.90;999.90;;;14.00;99.90;;;;;;5033844;28;20049;-67
2023/10/17 09:48:27;;;;;;;1999.90;999.90;;;14.00;99.90;;;;;;5047369;28;20095;-67
2023/10/17 09:50:56;;;;;;;1999.90;999.90;;;14.10;99.90;;;;;;5046229;28;20041;-67
2023/10/17 09:53:28;;;;;;;1999.90;999.90;;;14.20;99.90;;;;;;5042181;28;20411;-67
2023/10/17 09:55:56;;;;;;;1999.90;999.90;;;14.30;99.90;;;;;;5050610;28;20091;-67
2023/10/17 09:58:28;;;;;;;1999.90;999.90;;;14.40;99.90;;;;;;5033063;28;20111;-67
2023/10/17 10:00:56;;;;;;;1999.90;999.90;;;14.60;99.90;;;;;;5034501;28;20045;-67
2023/10/17 10:03:24;;;;;;;1999.90;999.90;;;14.70;99.90;;;;;;5040092;28;20172;-66
2023/10/17 10:05:53;;;;;;;1999.90;999.90;;;14.80;99.90;;;;;;5046060;28;20124;-67
2023/10/17 10:08:32;;;;;;;1999.90;999.90;;;14.80;99.90;;;;;;5046381;28;20397;-66
2023/10/17 10:10:59;;;;;;;48.55;46.22;;;14.90;99.90;;;;;;5033542;28;20127;-67
2023/10/17 10:13:26;;;;;;;59.85;57.08;;;14.90;99.90;;;;;;5058678;28;20076;-67
2023/10/17 10:15:51;;;;;;;64.63;61.50;;;14.90;99.90;;;;;;5038035;28;20029;-66
2023/10/17 10:18:40;;;;;;;77.53;74.05;;;15.00;99.90;;;;;;5031128;28;20053;-66
2023/10/17 10:21:12;;;;;;;55.17;52.55;;;15.00;99.90;;;;;;5061213;28;20049;-66
2023/10/17 10:23:39;;;;;;;56.92;54.35;;;15.00;99.90;;;;;;5027223;28;20041;-66
2023/10/17 10:26:11;;;;;;;74.60;71.32;;;15.20;99.90;;;;;;5017624;28;20044;-66
2023/10/17 10:28:38;;;;;;;51.88;49.35;;;15.20;99.90;;;;;;5046516;28;20052;-66
2023/10/17 10:31:22;;;;;;;63.70;60.72;;;15.40;99.90;;;;;;5045078;28;20045;-66
2023/10/17 10:33:52;;;;;;;50.17;47.63;;;15.40;99.90;;;;;;5056654;28;20033;-67
2023/10/17 10:36:19;;;;;;;60.67;57.95;;;15.50;99.90;;;;;;5039311;28;20470;-66
2023/10/17 10:38:45;;;;;;;89.28;85.30;;;15.40;99.90;;;;;;5045983;28;20039;-66
2023/10/17 10:41:15;;;;;;;118.25;113.30;;;15.40;99.90;;;;;;5047661;28;20479;-66
2023/10/17 10:43:41;;;;;;;62.53;59.72;;;15.40;99.90;;;;;;5048621;28;20650;-66
2023/10/17 10:46:11;;;;;;;124.63;119.32;;;15.50;99.90;;;;;;5038670;28;20509;-66
2023/10/17 10:48:45;;;;;;;331.85;316.83;;;15.40;99.90;;;;;;5038288;28;20037;-67
2023/10/17 10:51:15;;;;;;;255.15;244.20;;;15.50;99.90;;;;;;5052183;28;20049;-66
2023/10/17 10:53:41;;;;;;;215.98;206.82;;;15.60;99.90;;;;;;5029185;28;20362;-66
2023/10/17 10:56:11;;;;;;;183.52;175.75;;;15.50;99.90;;;;;;5046428;28;20033;-66
2023/10/17 10:58:55;;;;;;;248.20;237.60;;;15.60;99.90;;;;;;5046348;28;20118;-67
2023/10/17 11:01:22;;;;;;;211.45;202.52;;;15.50;99.90;;;;;;5037936;28;20041;-67
2023/10/17 11:03:49;;;;;;;199.23;190.90;;;15.60;99.90;;;;;;5026036;28;20059;-66
2023/10/17 11:06:19;;;;;;;226.82;217.40;;;15.60;99.90;;;;;;5038382;28;20052;-67
2023/10/17 11:08:46;;;;;;;236.73;226.68;;;15.60;99.90;;;;;;5037766;28;20049;-67
2023/10/17 11:11:14;;;;;;;234.25;224.38;;;15.60;99.90;;;;;;5032003;28;20041;-67
2023/10/17 11:13:45;;;;;;;138.00;132.23;;;15.70;99.90;;;;;;5042957;28;20047;-67
2023/10/17 11:16:12;;;;;;;287.45;274.80;;;15.70;99.90;;;;;;5036959;28;20042;-67
2023/10/17 11:18:40;;;;;;;193.02;185.05;;;15.80;99.90;;;;;;5035730;28;20517;-67
2023/10/17 11:21:09;;;;;;;191.00;183.05;;;15.90;99.90;;;;;;5049566;28;20072;-67
2023/10/17 11:23:40;;;;;;;220.65;211.23;;;15.90;99.90;;;;;;5034677;28;20405;-66
2023/10/17 11:26:12;;;;;;;200.30;191.90;;;16.00;99.90;;;;;;5035227;28;20041;-67
2023/10/17 11:28:42;;;;;;;258.90;247.90;;;16.10;99.90;;;;;;5021751;28;20041;-67
2023/10/17 11:31:13;;;;;;;198.02;189.68;;;16.20;99.90;;;;;;5028283;28;20037;-67
2023/10/17 11:33:47;;;;;;;204.80;196.23;;;16.10;99.90;;;;;;5022585;28;20075;-67
2023/10/17 11:36:15;;;;;;;197.98;189.52;;;16.20;99.90;;;;;;5035394;28;20492;-67
2023/10/17 11:38:43;;;;;;;192.32;184.25;;;16.30;99.90;;;;;;5045648;28;20498;-67
2023/10/17 11:41:09;;;;;;;138.88;133.05;;;16.30;99.90;;;;;;5036049;28;20055;-67
2023/10/17 11:43:50;;;;;;;153.18;146.73;;;16.40;99.90;;;;;;5058680;28;20045;-67
2023/10/17 11:46:27;;;;;;;145.90;139.70;;;16.30;99.90;;;;;;5041216;28;20072;-67
2023/10/17 11:48:54;;;;;;;140.20;134.15;;;16.40;99.90;;;;;;5042877;28;20500;-66
2023/10/17 11:51:28;;;;;;;173.43;166.15;;;16.40;99.90;;;;;;5038651;28;20116;-67
2023/10/17 11:54:05;;;;;;;170.85;163.55;;;16.40;99.90;;;;;;5036607;28;20041;-67
2023/10/17 11:56:36;;;;;;;191.65;183.65;;;16.40;99.90;;;;;;5050403;28;20049;-67
2023/10/17 11:59:03;;;;;;;131.35;125.57;;;16.30;99.90;;;;;;5020417;28;20040;-67
2023/10/17 12:01:32;;;;;;;178.85;171.32;;;16.20;99.90;;;;;;5040011;28;20045;-67
2023/10/17 12:04:06;;;;;;;141.70;135.73;;;16.00;99.90;;;;;;5040926;28;20041;-67
2023/10/17 12:06:32;;;;;;;174.50;166.80;;;15.90;99.90;;;;;;5059781;28;20045;-67
2023/10/17 12:08:58;;;;;;;179.43;171.85;;;15.80;99.90;;;;;;5044254;28;20246;-67
2023/10/17 12:11:26;;;;;;;157.00;150.35;;;15.70;99.90;;;;;;5030659;28;20041;-67
2023/10/17 12:13:53;;;;;;;189.75;181.85;;;15.60;99.90;;;;;;5037193;28;20038;-67
2023/10/17 12:16:28;;;;;;;254.10;243.40;;;15.50;99.90;;;;;;5050208;28;20052;-67
2023/10/17 12:18:54;;;;;;;210.32;201.50;;;15.40;99.90;;;;;;5054507;28;20490;-67
2023/10/17 12:21:20;;;;;;;271.83;260.08;;;15.20;99.90;;;;;;5049706;28;20045;-67
2023/10/17 12:23:46;;;;;;;290.13;277.27;;;15.10;99.90;;;;;;5045602;28;20047;-66
2023/10/17 12:26:14;;;;;;;375.35;357.88;;;15.00;99.90;;;;;;5048279;28;20047;-67
2023/10/17 12:28:41;;;;;;;352.90;336.90;;;14.80;99.90;;;;;;5041594;28;20402;-66
2023/10/17 12:31:10;;;;;;;318.75;304.73;;;14.80;99.90;;;;;;5054278;28;20379;-67
2023/10/17 12:33:36;;;;;;;300.20;286.75;;;14.60;99.90;;;;;;5047629;28;20037;-67
2023/10/17 12:36:04;;;;;;;366.75;349.58;;;14.50;99.90;;;;;;5044115;28;20041;-67
2023/10/17 12:38:33;;;;;;;280.58;268.38;;;14.30;99.90;;;;;;5049380;28;20524;-67
2023/10/17 12:41:03;;;;;;;438.42;417.45;;;14.20;99.90;;;;;;5039269;28;20091;-67
2023/10/17 12:43:29;;;;;;;309.80;296.00;;;14.20;99.90;;;;;;5047370;28;20467;-66
2023/10/17 12:45:55;;;;;;;498.30;473.20;;;14.00;99.90;;;;;;5050912;28;20214;-66
2023/10/17 12:48:21;;;;;;;444.60;422.98;;;14.00;99.90;;;;;;5043719;28;20045;-66
2023/10/17 12:50:47;;;;;;;411.98;392.38;;;14.00;99.90;;;;;;5031078;28;20037;-66
2023/10/17 12:53:13;;;;;;;359.85;343.40;;;13.90;99.90;;;;;;5049279;28;20604;-67
2023/10/17 12:55:40;;;;;;;348.35;332.67;;;13.80;99.90;;;;;;5050495;28;20033;-66
2023/10/17 12:58:07;;;;;;;401.52;382.65;;;13.80;99.90;;;;;;5048155;28;20501;-66
2023/10/17 13:00:34;;;;;;;339.00;323.67;;;13.70;99.90;;;;;;5047830;28;20126;-66
2023/10/17 13:03:00;;;;;;;199.55;191.38;;;13.70;99.90;;;;;;5046773;28;20138;-67
2023/10/17 13:05:26;;;;;;;297.42;284.50;;;13.60;99.90;;;;;;5053173;28;20045;-67
2023/10/17 13:07:54;;;;;;;341.98;326.67;;;13.50;99.90;;;;;;5042573;28;20048;-66
2023/10/17 13:10:20;;;;;;;272.90;261.20;;;13.40;99.90;;;;;;5048871;28;20048;-67
2023/10/17 13:12:49;;;;;;;283.88;271.73;;;13.30;99.90;;;;;;5035694;28;20500;-66
2023/10/17 13:15:16;;;;;;;339.65;324.65;;;13.20;99.90;;;;;;5048460;28;20049;-66
2023/10/17 13:17:42;;;;;;;1999.90;999.90;;;13.20;99.90;;;;;;5047022;28;20048;-67
2023/10/17 13:20:09;;;;;;;201.63;193.20;;;13.10;99.90;;;;;;5049118;28;20041;-66
2023/10/17 13:22:46;;;;;;;253.45;242.65;;;13.20;99.90;;;;;;5047601;28;20063;-66
2023/10/17 13:25:12;;;;;;;258.25;247.50;;;13.10;99.90;;;;;;5054669;28;20037;-66
2023/10/17 13:27:37;;;;;;;1999.90;999.90;;;13.00;99.90;;;;;;5050534;28;20069;-66
2023/10/17 13:30:05;;;;;;;1999.90;999.90;;;12.90;99.90;;;;;;5033701;28;20543;-66
2023/10/17 13:32:31;;;;;;;1999.90;999.90;;;12.90;99.90;;;;;;5046208;28;20041;-66
2023/10/17 13:34:57;;;;;;;1576.55;823.33;;;12.90;99.90;;;;;;5039655;28;20515;-66
2023/10/17 13:37:22;;;;;;;1999.90;999.90;;;12.90;99.90;;;;;;5033090;28;20037;-66
2023/10/17 13:39:48;;;;;;;1999.90;999.90;;;12.90;99.90;;;;;;5016192;28;20055;-67
2023/10/17 13:42:14;;;;;;;1999.90;999.90;;;12.90;99.90;;;;;;5014800;28;20521;-67
2023/10/17 13:44:39;;;;;;;1999.90;999.90;;;12.90;99.90;;;;;;5038973;28;20493;-67
2023/10/17 13:47:08;;;;;;;1999.90;999.90;;;12.90;99.90;;;;;;5019672;28;20045;-66
2023/10/17 13:49:36;;;;;;;1999.90;999.90;;;12.90;99.90;;;;;;5036434;28;20041;-65
2023/10/17 13:52:03;;;;;;;1999.90;999.90;;;12.90;99.90;;;;;;5046718;28;20095;-65
2023/10/17 13:54:34;;;;;;;1999.90;999.90;;;13.00;99.90;;;;;;5033720;28;20052;-64
2023/10/17 13:57:06;;;;;;;1999.90;999.90;;;12.90;99.90;;;;;;5043216;28;20041;-65
2023/10/17 13:59:39;;;;;;;1999.90;999.90;;;12.90;99.90;;;;;;5039847;28;20052;-65
2023/10/17 14:02:06;;;;;;;1999.90;999.90;;;12.90;99.90;;;;;;5052266;28;20048;-65
2023/10/17 14:04:32;;;;;;;1999.90;999.90;;;12.80;99.90;;;;;;5041934;28;20053;-65
2023/10/17 14:06:58;;;;;;;1557.43;805.08;;;12.80;99.90;;;;;;5036514;28;20044;-65
2023/10/17 14:09:23;;;;;;;1999.90;999.90;;;12.80;99.90;;;;;;5035418;28;20877;-65
2023/10/17 14:11:53;;;;;;;1999.90;999.90;;;12.70;99.90;;;;;;5044247;28;20044;-66
2023/10/17 14:14:19;;;;;;;1999.90;999.90;;;12.60;99.90;;;;;;5035478;28;20057;-66
2023/10/17 14:16:50;;;;;;;1999.90;999.90;;;12.60;99.90;;;;;;5051551;28;20608;-66
2023/10/17 14:19:18;;;;;;;1999.90;999.90;;;12.50;99.90;;;;;;5048140;28;20079;-66
2023/10/17 14:27:13;;;;;;;1999.90;999.90;;;12.40;99.90;;;;;;5053617;28;20057;-66
2023/10/17 14:29:45;;;;;;;1999.90;999.90;;;12.40;99.90;;;;;;5044225;28;20095;-65
2023/10/17 14:32:10;;;;;;;1999.90;999.90;;;12.30;99.90;;;;;;5046836;28;20857;-65
2023/10/17 14:34:37;;;;;;;1999.90;999.90;;;12.30;99.90;;;;;;5042640;28;20045;-66
2023/10/17 14:37:05;;;;;;;1999.90;999.90;;;12.20;99.90;;;;;;5039674;28;20055;-66
2023/10/17 14:39:32;;;;;;;1999.90;999.90;;;12.20;99.90;;;;;;5044417;28;20094;-66
2023/10/17 14:41:57;;;;;;;1999.90;999.90;;;12.20;99.90;;;;;;5029275;28;20467;-66
2023/10/17 14:44:24;;;;;;;1999.90;999.90;;;12.20;99.90;;;;;;5037945;28;20049;-66
2023/10/17 14:46:53;;;;;;;1999.90;999.90;;;12.10;99.90;;;;;;5037353;28;20091;-66
2023/10/17 14:49:21;;;;;;;1999.90;999.90;;;12.10;99.90;;;;;;5035487;28;20071;-66